createdAt,value
2019-06-26T00:01:52.711Z,97268.45
2019-06-26T00:06:47.398Z,97272.49
2019-06-26T00:11:42.047Z,97277.94
2019-06-26T00:16:36.694Z,97282.41
2019-06-26T00:21:31.284Z,97284.00
2019-06-26T00:26:25.899Z,97288.92
2019-06-26T00:31:20.469Z,97298.16
2019-06-26T00:36:15.547Z,97299.00
2019-06-26T00:41:10.130Z,97299.64
2019-06-26T00:46:04.720Z,97307.70
2019-06-26T00:50:59.319Z,97312.59
2019-06-26T00:55:55.235Z,97315.16
2019-06-26T01:00:53.337Z,97313.67
2019-06-26T01:05:47.992Z,97318.75
2019-06-26T01:10:42.758Z,97311.05
2019-06-26T01:15:37.352Z,97315.65
2019-06-26T01:20:31.943Z,97331.67
2019-06-26T01:25:26.541Z,97329.06
2019-06-26T01:30:21.914Z,97327.77
2019-06-26T01:35:16.586Z,97335.01
2019-06-26T01:40:12.192Z,97332.64
2019-06-26T01:45:08.405Z,97328.11
2019-06-26T01:50:03.093Z,97332.36
2019-06-26T01:54:57.679Z,97327.87
2019-06-26T01:59:52.274Z,97334.31
2019-06-26T02:04:46.869Z,97335.66
2019-06-26T02:09:41.480Z,97335.42
2019-06-26T02:14:36.078Z,97331.19
2019-06-26T02:19:30.671Z,97345.60
2019-06-26T02:24:25.253Z,97341.11
2019-06-26T02:29:19.850Z,97350.20
2019-06-26T02:34:14.441Z,97346.22
2019-06-26T02:39:09.059Z,97349.94
2019-06-26T02:44:03.751Z,97350.73
2019-06-26T02:48:58.388Z,97357.14
2019-06-26T02:53:52.993Z,97359.55
2019-06-26T02:58:47.609Z,97365.72
2019-06-26T03:03:42.251Z,97363.86
2019-06-26T03:08:36.910Z,97365.21
2019-06-26T03:13:31.490Z,97366.33
2019-06-26T03:18:26.099Z,97366.86
2019-06-26T03:23:20.704Z,97371.69
2019-06-26T03:28:15.274Z,97373.27
2019-06-26T03:33:09.878Z,97376.22
2019-06-26T03:38:04.705Z,97381.28
2019-06-26T03:42:59.292Z,97381.28
2019-06-26T03:47:53.884Z,97383.67
2019-06-26T03:52:48.535Z,97392.20
2019-06-26T03:57:43.132Z,97394.04
2019-06-26T04:02:37.728Z,97400.13
2019-06-26T04:07:32.301Z,97401.37
2019-06-26T04:12:26.895Z,97398.52
2019-06-26T04:17:21.488Z,97406.53
2019-06-26T04:22:16.123Z,97404.26
2019-06-26T04:27:10.671Z,97401.46
2019-06-26T04:32:05.324Z,97402.73
2019-06-26T04:36:59.917Z,97398.85
2019-06-26T04:41:54.510Z,97398.09
2019-06-26T04:46:49.106Z,97402.05
2019-06-26T04:51:43.702Z,97396.77
2019-06-26T04:56:38.302Z,97401.59
2019-06-26T05:01:32.887Z,97402.16
2019-06-26T05:06:27.480Z,97408.98
2019-06-26T05:11:22.103Z,97405.22
2019-06-26T05:16:20.282Z,97415.63
2019-06-26T05:21:13.004Z,97412.86
2019-06-26T05:26:07.579Z,97409.36
2019-06-26T05:31:02.172Z,97407.84
2019-06-26T05:35:56.749Z,97418.53
2019-06-26T05:40:51.451Z,97415.54
2019-06-26T05:45:46.125Z,97415.10
2019-06-26T05:50:40.732Z,97419.94
2019-06-26T05:55:35.531Z,97421.53
2019-06-26T06:00:30.129Z,97428.63
2019-06-26T06:05:24.780Z,97427.94
2019-06-26T06:10:20.087Z,97432.85
2019-06-26T06:15:15.904Z,97432.97
2019-06-26T06:20:12.513Z,97430.41
2019-06-26T06:25:07.904Z,97427.47
2019-06-26T06:30:02.692Z,97420.89
2019-06-26T06:34:57.354Z,97429.66
2019-06-26T06:39:51.956Z,97442.36
2019-06-26T06:44:47.640Z,97443.02
2019-06-26T06:49:42.296Z,97446.13
2019-06-26T06:54:37.184Z,97443.50
2019-06-26T06:59:34.556Z,97450.34
2019-06-26T07:04:29.581Z,97449.31
2019-06-26T07:09:24.986Z,97445.00
2019-06-26T07:14:20.782Z,97461.66
2019-06-26T07:19:15.945Z,97466.92
2019-06-26T07:24:10.616Z,97469.55
2019-06-26T07:29:05.246Z,97470.89
2019-06-26T07:34:00.035Z,97472.73
2019-06-26T07:38:54.787Z,97470.36
2019-06-26T07:43:54.558Z,97473.50
2019-06-26T07:48:49.933Z,97474.40
2019-06-26T07:53:45.490Z,97477.04
2019-06-26T07:58:42.021Z,97482.03
2019-06-26T08:03:38.731Z,97473.66
2019-06-26T08:08:33.416Z,97472.86
2019-06-26T08:13:32.969Z,97470.45
2019-06-26T08:18:27.989Z,97471.48
2019-06-26T08:23:22.593Z,97471.48
2019-06-26T08:28:17.185Z,97468.66
2019-06-26T08:33:11.763Z,97468.99
2019-06-26T08:38:12.513Z,97478.13
2019-06-26T08:43:02.689Z,97471.95
2019-06-26T08:47:57.954Z,97464.61
2019-06-26T08:52:52.613Z,97468.00
2019-06-26T08:57:47.287Z,97468.99
2019-06-26T09:02:43.079Z,97461.53
2019-06-26T09:07:37.801Z,97459.48
2019-06-26T09:12:32.386Z,97460.58
2019-06-26T09:17:27.013Z,97460.27
2019-06-26T09:22:21.641Z,97461.73
2019-06-26T09:27:16.256Z,97456.55
2019-06-26T09:32:10.995Z,97453.59
2019-06-26T09:37:05.651Z,97458.62
2019-06-26T09:42:01.246Z,97456.12
2019-06-26T09:46:55.824Z,97456.31
2019-06-26T09:51:50.562Z,97460.55
2019-06-26T09:56:49.772Z,97458.20
2019-06-26T10:01:44.699Z,97459.44
2019-06-26T10:06:41.803Z,97466.54
2019-06-26T10:11:36.818Z,97461.42
2019-06-26T10:16:33.113Z,97457.69
2019-06-26T10:21:30.842Z,97454.64
2019-06-26T10:26:32.195Z,97456.63
2019-06-26T10:31:24.991Z,97449.23
2019-06-26T10:36:19.574Z,97444.29
2019-06-26T10:41:14.958Z,97438.11
2019-06-26T10:46:14.489Z,97441.95
2019-06-26T10:51:15.204Z,97441.42
2019-06-26T10:56:10.894Z,97432.99
2019-06-26T11:01:10.099Z,97434.76
2019-06-26T11:06:06.629Z,97427.69
2019-06-26T11:11:01.393Z,97428.05
2019-06-26T11:15:56.009Z,97423.16
2019-06-26T11:20:51.018Z,97428.24
2019-06-26T11:25:45.730Z,97419.67
2019-06-26T11:30:43.682Z,97415.14
2019-06-26T11:35:39.542Z,97413.01
2019-06-26T11:40:34.888Z,97414.44
2019-06-26T11:45:29.763Z,97410.91
2019-06-26T11:50:33.461Z,97408.09
2019-06-26T11:55:28.539Z,97403.86
2019-06-26T12:00:25.073Z,97410.74
2019-06-26T12:05:20.589Z,97401.59
2019-06-26T12:10:18.996Z,97393.45
2019-06-26T12:15:15.902Z,97389.31
2019-06-26T12:20:18.360Z,97378.21
2019-06-26T12:25:10.249Z,97382.40
2019-06-26T12:30:09.698Z,97378.09
2019-06-26T12:35:06.429Z,97377.53
2019-06-26T12:40:08.754Z,97378.39
2019-06-26T12:45:06.353Z,97375.45
2019-06-26T12:50:01.177Z,97374.59
2019-06-26T12:54:55.811Z,97365.34
2019-06-26T12:59:57.410Z,97368.05
2019-06-26T13:04:47.083Z,97366.80
2019-06-26T13:09:47.566Z,97365.28
2019-06-26T13:14:47.154Z,97355.13
2019-06-26T13:19:42.747Z,97350.39
2019-06-26T13:24:37.440Z,97347.73
2019-06-26T13:29:32.147Z,97345.88
2019-06-26T13:34:27.133Z,97345.71
2019-06-26T13:39:22.129Z,97335.32
2019-06-26T13:44:17.466Z,97336.90
2019-06-26T13:49:16.470Z,97335.11
2019-06-26T13:54:10.649Z,97331.88
2019-06-26T13:59:08.788Z,97339.38
2019-06-26T14:04:03.687Z,97334.72
2019-06-26T14:08:58.865Z,97328.20
2019-06-26T14:13:53.450Z,97329.28
2019-06-26T14:18:48.162Z,97324.77
2019-06-26T14:23:43.619Z,97320.61
2019-06-26T14:28:38.295Z,97319.30
2019-06-26T14:33:33.036Z,97317.44
2019-06-26T14:38:27.749Z,97314.73
2019-06-26T14:43:22.339Z,97308.22
2019-06-26T14:48:16.972Z,97302.30
2019-06-26T14:53:11.805Z,97303.38
2019-06-26T14:58:06.447Z,97299.31
2019-06-26T15:03:03.750Z,97293.39
2019-06-26T15:07:58.828Z,97288.98
2019-06-26T15:12:53.454Z,97290.02
2019-06-26T15:17:48.054Z,97282.42
2019-06-26T15:22:42.644Z,97282.42
2019-06-26T15:27:37.341Z,97275.59
2019-06-26T15:32:31.958Z,97278.41
2019-06-26T15:37:26.651Z,97272.77
2019-06-26T15:42:21.491Z,97265.94
2019-06-26T15:47:16.481Z,97269.30
2019-06-26T15:52:15.402Z,97265.34
2019-06-26T15:57:07.541Z,97264.78
2019-06-26T16:02:02.346Z,97258.20
2019-06-26T16:06:57.018Z,97256.83
2019-06-26T16:11:51.652Z,97245.69
2019-06-26T16:16:48.100Z,97242.31
2019-06-26T16:21:43.042Z,97244.84
2019-06-26T16:26:37.703Z,97237.06
2019-06-26T16:31:33.587Z,97235.30
2019-06-26T16:36:28.191Z,97232.42
2019-06-26T16:41:22.816Z,97236.86
2019-06-26T16:46:17.451Z,97230.28
2019-06-26T16:51:12.059Z,97222.64
2019-06-26T16:56:06.680Z,97234.20
2019-06-26T17:01:01.470Z,97233.01
2019-06-26T17:05:56.327Z,97235.91
2019-06-26T17:10:51.049Z,97229.12
2019-06-26T17:15:45.680Z,97232.36
2019-06-26T17:20:40.297Z,97234.05
2019-06-26T17:25:35.036Z,97234.36
2019-06-26T17:30:29.715Z,97235.08
2019-06-26T17:35:24.301Z,97233.41
2019-06-26T17:40:19.133Z,97240.87
2019-06-26T17:45:15.335Z,97243.27
2019-06-26T17:50:10.963Z,97241.37
2019-06-26T17:55:09.440Z,97237.02
2019-06-26T18:00:06.921Z,97233.30
2019-06-26T18:05:01.941Z,97230.41
2019-06-26T18:09:56.526Z,97231.92
2019-06-26T18:14:51.221Z,97239.50
2019-06-26T18:19:45.881Z,97245.34
2019-06-26T18:24:40.494Z,97247.52
2019-06-26T18:29:35.114Z,97251.05
2019-06-26T18:34:29.754Z,97247.80
2019-06-26T18:39:24.434Z,97246.78
2019-06-26T18:44:19.069Z,97250.40
2019-06-26T18:49:13.765Z,97252.34
2019-06-26T18:54:08.381Z,97249.76
2019-06-26T18:59:03.005Z,97252.84
2019-06-26T19:03:57.576Z,97249.13
2019-06-26T19:08:52.190Z,97260.36
2019-06-26T19:13:46.803Z,97263.25
2019-06-26T19:18:41.496Z,97260.78
2019-06-26T19:23:36.091Z,97264.63
2019-06-26T19:28:30.742Z,97265.34
2019-06-26T19:33:25.350Z,97277.02
2019-06-26T19:38:20.020Z,97275.66
2019-06-26T19:43:14.701Z,97285.61
2019-06-26T19:48:09.372Z,97291.80
2019-06-26T19:53:04.149Z,97292.18
2019-06-26T19:57:58.760Z,97295.20
2019-06-26T20:02:53.420Z,97301.20
2019-06-26T20:07:48.067Z,97303.73
2019-06-26T20:12:43.482Z,97305.31
2019-06-26T20:17:38.179Z,97312.64
2019-06-26T20:22:32.764Z,97304.41
2019-06-26T20:27:27.373Z,97290.45
2019-06-26T20:32:21.976Z,97293.31
2019-06-26T20:37:16.695Z,97300.58
2019-06-26T20:42:11.351Z,97302.33
2019-06-26T20:47:05.935Z,97301.13
2019-06-26T20:52:00.552Z,97303.75
2019-06-26T20:56:55.143Z,97306.02
2019-06-26T21:01:49.833Z,97306.64
2019-06-26T21:06:44.420Z,97306.69
2019-06-26T21:11:39.057Z,97313.67
2019-06-26T21:16:33.652Z,97315.06
2019-06-26T21:21:28.258Z,97319.52
2019-06-26T21:26:22.871Z,97329.39
2019-06-26T21:31:17.474Z,97326.16
2019-06-26T21:36:12.069Z,97330.02
2019-06-26T21:41:06.686Z,97332.28
2019-06-26T21:46:01.276Z,97338.75
2019-06-26T21:50:55.888Z,97338.72
2019-06-26T21:55:50.496Z,97344.88
2019-06-26T22:00:45.904Z,97347.11
2019-06-26T22:05:40.514Z,97349.53
2019-06-26T22:10:35.286Z,97349.25
2019-06-26T22:15:29.903Z,97344.92
2019-06-26T22:20:24.564Z,97340.44
2019-06-26T22:25:19.386Z,97347.47
2019-06-26T22:30:14.902Z,97350.88
2019-06-26T22:35:10.398Z,97344.08
2019-06-26T22:40:07.407Z,97350.48
2019-06-26T22:45:02.085Z,97344.31
2019-06-26T22:49:56.750Z,97347.31
2019-06-26T22:54:51.480Z,97350.42
2019-06-26T22:59:46.105Z,97341.89
2019-06-26T23:04:40.699Z,97349.28
2019-06-26T23:09:35.324Z,97347.24
2019-06-26T23:14:29.915Z,97345.01
2019-06-26T23:19:24.531Z,97334.49
2019-06-26T23:24:19.128Z,97336.80
2019-06-26T23:29:13.751Z,97333.22
2019-06-26T23:34:08.335Z,97327.14
2019-06-26T23:39:03.237Z,97328.48
2019-06-26T23:43:57.821Z,97332.38
2019-06-26T23:48:52.428Z,97331.86
2019-06-26T23:53:47.099Z,97333.34
2019-06-26T23:58:41.707Z,97338.48
